Time;durP1;ratioP1;P1;durP2;ratioP2;P2;SDS_P1;SDS_P2;PMS_P1;PMS_P2;Temp;Humidity;BMP_temperature;BMP_pressure;BME280_temperature;BME280_humidity;BME280_pressure;Samples;Min_cycle;Max_cycle;Signal;HPM_P1;HPM_P2
2023/07/03 00:02:25;;;;;;;10.50;9.17;;;19.80;99.90;;;;;;5031813;28;20203;-58
2023/07/03 00:04:53;;;;;;;13.00;9.43;;;19.80;99.90;;;;;;5032100;28;20198;-58
2023/07/03 00:07:20;;;;;;;11.13;8.97;;;19.70;99.90;;;;;;5031140;28;20207;-58
2023/07/03 00:09:47;;;;;;;11.50;9.40;;;19.90;99.90;;;;;;5032402;28;20198;-58
2023/07/03 00:12:14;;;;;;;14.30;10.17;;;19.90;99.90;;;;;;5030856;28;20215;-58
2023/07/03 00:14:41;;;;;;;12.90;10.77;;;19.90;99.90;;;;;;5025597;28;20660;-58
2023/07/03 00:17:08;;;;;;;11.57;10.23;;;19.80;99.90;;;;;;5024778;28;20598;-58
2023/07/03 00:19:35;;;;;;;12.27;10.13;;;19.80;99.90;;;;;;5033964;28;20214;-58
2023/07/03 00:22:04;;;;;;;10.33;9.23;;;19.80;99.90;;;;;;5033536;28;20654;-58
2023/07/03 00:24:32;;;;;;;14.80;10.57;;;19.90;99.90;;;;;;5032734;28;20205;-58
2023/07/03 00:26:59;;;;;;;14.90;10.70;;;19.90;99.90;;;;;;5033601;28;20283;-58
2023/07/03 00:29:30;;;;;;;12.20;10.23;;;19.80;99.90;;;;;;5030422;28;20252;-58
2023/07/03 00:31:57;;;;;;;11.23;9.10;;;19.80;99.90;;;;;;5033378;28;20252;-58
2023/07/03 00:34:25;;;;;;;11.33;9.80;;;19.80;99.90;;;;;;5032291;28;20699;-58
2023/07/03 00:36:52;;;;;;;13.40;10.60;;;19.80;99.90;;;;;;5032229;28;20660;-58
2023/07/03 00:39:20;;;;;;;10.60;9.50;;;19.70;99.90;;;;;;5033347;28;20202;-58
2023/07/03 00:41:48;;;;;;;12.60;10.40;;;19.70;99.90;;;;;;5031765;28;20223;-58
2023/07/03 00:44:17;;;;;;;13.83;10.60;;;19.70;99.90;;;;;;5026110;28;20252;-58
2023/07/03 00:46:46;;;;;;;13.90;10.90;;;19.80;99.90;;;;;;5031722;28;20202;-58
2023/07/03 00:49:13;;;;;;;11.90;10.00;;;19.60;99.90;;;;;;5033278;28;20194;-58
2023/07/03 00:51:44;;;;;;;12.00;10.10;;;19.50;99.90;;;;;;5024178;28;20735;-58
2023/07/03 00:54:11;;;;;;;11.57;9.83;;;19.50;99.90;;;;;;5025195;28;21012;-58
2023/07/03 00:56:40;;;;;;;16.83;10.33;;;19.40;99.90;;;;;;5033243;28;20207;-58
2023/07/03 00:59:07;;;;;;;12.30;10.03;;;19.30;99.90;;;;;;5031818;28;20199;-58
2023/07/03 01:01:39;;;;;;;12.67;10.07;;;19.30;99.90;;;;;;5032613;28;20237;-58
2023/07/03 01:04:11;;;;;;;13.43;11.37;;;19.20;99.90;;;;;;5031845;28;20198;-58
2023/07/03 01:06:42;;;;;;;15.10;10.53;;;19.30;99.90;;;;;;5029870;28;20272;-58
2023/07/03 01:09:13;;;;;;;13.30;9.47;;;19.40;99.90;;;;;;5032875;28;20202;-58
2023/07/03 01:11:43;;;;;;;10.47;9.27;;;19.30;99.90;;;;;;5029073;28;20775;-58
2023/07/03 01:14:13;;;;;;;10.90;9.47;;;19.30;99.90;;;;;;5012975;28;20238;-58
2023/07/03 01:16:40;;;;;;;10.57;9.47;;;19.40;99.90;;;;;;5013140;28;20211;-58
2023/07/03 01:19:15;;;;;;;14.27;9.87;;;19.40;99.90;;;;;;5025203;28;20595;-59
2023/07/03 01:21:48;;;;;;;12.77;9.80;;;19.40;99.90;;;;;;5031703;28;20288;-58
2023/07/03 01:24:24;;;;;;;13.13;9.83;;;19.40;99.90;;;;;;5025286;28;20199;-58
2023/07/03 01:26:51;;;;;;;16.60;10.57;;;19.30;99.90;;;;;;5032830;28;20210;-58
2023/07/03 01:29:19;;;;;;;9.97;8.90;;;19.20;99.90;;;;;;5032587;28;20202;-58
2023/07/03 01:31:48;;;;;;;12.67;10.63;;;19.20;99.90;;;;;;5029687;28;20258;-58
2023/07/03 01:34:15;;;;;;;13.00;10.40;;;19.20;99.90;;;;;;5017257;28;20235;-58
2023/07/03 01:36:43;;;;;;;14.67;12.17;;;19.20;99.90;;;;;;5032351;28;20276;-58
2023/07/03 01:39:10;;;;;;;11.37;9.27;;;19.10;99.90;;;;;;5032580;28;20209;-58
2023/07/03 01:41:39;;;;;;;11.40;8.77;;;19.10;99.90;;;;;;5030174;28;20684;-58
2023/07/03 01:44:06;;;;;;;12.50;9.67;;;19.10;99.90;;;;;;5031812;28;20195;-58
2023/07/03 01:46:33;;;;;;;13.43;10.03;;;19.10;99.90;;;;;;5031130;28;20264;-58
2023/07/03 01:49:00;;;;;;;12.87;9.67;;;19.10;99.90;;;;;;5032260;28;20256;-58
2023/07/03 01:51:38;;;;;;;13.80;10.50;;;19.20;99.90;;;;;;5032057;28;20288;-58
2023/07/03 01:54:10;;;;;;;12.23;9.50;;;19.30;99.90;;;;;;5028110;28;20250;-58
2023/07/03 01:56:42;;;;;;;10.20;9.17;;;19.30;99.90;;;;;;5027539;28;20692;-58
2023/07/03 01:59:12;;;;;;;11.77;9.37;;;19.20;99.90;;;;;;5031047;28;20202;-58
2023/07/03 02:01:47;;;;;;;11.77;10.27;;;19.20;99.90;;;;;;5032007;28;20643;-58
2023/07/03 02:04:23;;;;;;;10.63;9.00;;;19.20;99.90;;;;;;5022846;28;20198;-58
2023/07/03 02:06:52;;;;;;;11.93;9.07;;;19.30;99.90;;;;;;5030871;28;20293;-58
2023/07/03 02:09:20;;;;;;;12.90;10.03;;;19.30;99.90;;;;;;5031880;28;20286;-58
2023/07/03 02:11:51;;;;;;;12.63;9.27;;;19.30;99.90;;;;;;5030570;28;20222;-58
2023/07/03 02:14:18;;;;;;;14.47;9.77;;;19.30;99.90;;;;;;5031380;28;20222;-58
2023/07/03 02:16:47;;;;;;;11.67;9.03;;;19.30;99.90;;;;;;5022813;28;20211;-58
2023/07/03 02:19:15;;;;;;;10.17;8.87;;;19.30;99.90;;;;;;5031771;28;20198;-58
2023/07/03 02:21:43;;;;;;;13.60;9.67;;;19.20;99.90;;;;;;5031628;28;20226;-58
2023/07/03 02:24:11;;;;;;;12.43;9.27;;;19.20;99.90;;;;;;5030247;28;20565;-58
2023/07/03 02:26:38;;;;;;;9.70;8.23;;;19.10;99.90;;;;;;5031713;28;20207;-58
2023/07/03 02:29:06;;;;;;;9.27;8.30;;;19.10;99.90;;;;;;5031085;28;20202;-58
2023/07/03 02:31:33;;;;;;;12.97;9.20;;;19.10;99.90;;;;;;5019890;28;20250;-58
2023/07/03 02:34:00;;;;;;;11.07;9.17;;;19.10;99.90;;;;;;5030052;28;20221;-59
2023/07/03 02:36:29;;;;;;;10.70;8.93;;;19.10;99.90;;;;;;5030233;28;20203;-58
2023/07/03 02:38:57;;;;;;;10.23;8.67;;;19.00;99.90;;;;;;5029160;28;20202;-58
2023/07/03 02:41:24;;;;;;;12.03;8.67;;;19.00;99.90;;;;;;5028752;28;20340;-58
2023/07/03 02:43:51;;;;;;;11.17;9.03;;;18.90;99.90;;;;;;5029145;28;20245;-58
2023/07/03 02:46:20;;;;;;;10.67;7.63;;;18.90;99.90;;;;;;5024609;28;20202;-59
2023/07/03 02:48:47;;;;;;;12.23;9.37;;;18.90;99.90;;;;;;5030136;28;20260;-58
2023/07/03 02:51:14;;;;;;;10.07;8.87;;;18.90;99.90;;;;;;5030978;28;20715;-59
2023/07/03 02:53:42;;;;;;;9.90;8.83;;;19.00;99.90;;;;;;5030958;28;20617;-58
2023/07/03 02:56:10;;;;;;;10.23;7.90;;;19.00;99.90;;;;;;5026718;28;20210;-58
2023/07/03 02:58:37;;;;;;;8.90;7.63;;;19.00;99.90;;;;;;5022244;28;20224;-58
2023/07/03 03:01:04;;;;;;;10.90;8.53;;;18.90;99.90;;;;;;5029783;28;20218;-58
2023/07/03 03:03:33;;;;;;;10.67;8.23;;;18.90;99.90;;;;;;5030802;28;20245;-58
2023/07/03 03:06:01;;;;;;;12.03;8.00;;;18.90;99.90;;;;;;5031110;28;20701;-58
2023/07/03 03:08:28;;;;;;;11.00;8.03;;;19.00;99.90;;;;;;5032162;28;20210;-58
2023/07/03 03:10:55;;;;;;;10.37;7.17;;;19.00;99.90;;;;;;5034733;28;20222;-58
2023/07/03 03:13:22;;;;;;;8.63;6.90;;;19.00;99.90;;;;;;5033976;28;20202;-58
2023/07/03 03:15:49;;;;;;;13.23;9.20;;;19.00;99.90;;;;;;5034831;28;20260;-59
2023/07/03 03:18:16;;;;;;;9.83;7.83;;;19.00;99.90;;;;;;5034882;28;20198;-58
2023/07/03 03:20:46;;;;;;;12.00;8.43;;;19.00;99.90;;;;;;5035010;28;20222;-58
2023/07/03 03:23:13;;;;;;;11.77;9.30;;;18.90;99.90;;;;;;5034699;28;20202;-59
2023/07/03 03:25:40;;;;;;;9.47;8.57;;;18.90;99.90;;;;;;5033283;28;20267;-58
2023/07/03 03:28:08;;;;;;;10.37;7.87;;;18.80;99.90;;;;;;5034620;28;20199;-58
2023/07/03 03:30:35;;;;;;;12.33;8.23;;;18.80;99.90;;;;;;5034667;28;20258;-59
2023/07/03 03:33:02;;;;;;;8.07;7.10;;;18.70;99.90;;;;;;5031213;28;20298;-59
2023/07/03 03:35:29;;;;;;;9.00;7.63;;;18.70;99.90;;;;;;5029337;28;20214;-58
2023/07/03 03:37:57;;;;;;;11.70;8.27;;;18.70;99.90;;;;;;5033420;28;20248;-58
2023/07/03 03:40:24;;;;;;;12.17;8.80;;;18.70;99.90;;;;;;5032108;28;20222;-58
2023/07/03 03:42:51;;;;;;;12.13;8.30;;;18.70;99.90;;;;;;5034168;28;20202;-58
2023/07/03 03:45:18;;;;;;;8.00;7.30;;;18.70;99.90;;;;;;5034430;28;20268;-59
2023/07/03 03:47:48;;;;;;;11.73;8.00;;;18.70;99.90;;;;;;5034587;28;20701;-58
2023/07/03 03:50:15;;;;;;;11.80;6.23;;;18.80;99.90;;;;;;5033572;28;20675;-58
2023/07/03 03:52:42;;;;;;;11.07;7.13;;;18.80;99.90;;;;;;5031863;28;20207;-58
2023/07/03 03:55:11;;;;;;;9.00;5.60;;;18.90;99.90;;;;;;5034369;28;20268;-58
2023/07/03 03:57:38;;;;;;;11.20;7.10;;;18.90;99.90;;;;;;5034593;28;20763;-58
2023/07/03 04:00:10;;;;;;;6.93;6.23;;;18.90;99.90;;;;;;5034277;28;20260;-58
2023/07/03 04:02:37;;;;;;;11.77;6.60;;;19.00;99.90;;;;;;5033819;28;20238;-59
2023/07/03 04:05:05;;;;;;;8.30;5.73;;;19.00;99.90;;;;;;5033469;28;20241;-58
2023/07/03 04:07:32;;;;;;;9.00;6.40;;;19.00;99.90;;;;;;5034154;28;20253;-58
2023/07/03 04:09:59;;;;;;;6.87;6.03;;;19.00;99.90;;;;;;5033973;28;20206;-58
2023/07/03 04:12:28;;;;;;;6.97;5.80;;;19.10;99.90;;;;;;5028453;28;20202;-58
2023/07/03 04:14:55;;;;;;;7.00;5.07;;;19.20;99.90;;;;;;5033997;28;20219;-58
2023/07/03 04:17:21;;;;;;;9.20;5.97;;;19.20;99.90;;;;;;5032803;28;20202;-58
2023/07/03 04:19:48;;;;;;;10.03;5.67;;;19.20;99.90;;;;;;5032729;28;20683;-58
2023/07/03 04:22:16;;;;;;;8.43;5.53;;;19.50;99.90;;;;;;5032053;28;20814;-58
2023/07/03 04:24:43;;;;;;;8.80;5.63;;;19.50;99.90;;;;;;5031242;28;20198;-57
2023/07/03 04:27:10;;;;;;;8.27;5.60;;;19.50;99.90;;;;;;5028477;28;20664;-57
2023/07/03 04:29:39;;;;;;;7.77;5.23;;;19.50;99.90;;;;;;5031142;28;20278;-58
2023/07/03 04:32:06;;;;;;;9.07;5.80;;;19.60;99.90;;;;;;5033451;28;20226;-58
2023/07/03 04:34:33;;;;;;;6.77;5.43;;;19.50;99.90;;;;;;5033766;28;20260;-58
2023/07/03 04:37:03;;;;;;;9.00;6.27;;;19.50;99.90;;;;;;5033788;28;20205;-58
2023/07/03 04:39:31;;;;;;;11.27;6.43;;;19.40;99.90;;;;;;5033355;28;20233;-58
2023/07/03 04:42:00;;;;;;;7.57;5.80;;;19.30;99.90;;;;;;5027881;28;20219;-58
2023/07/03 04:44:27;;;;;;;7.87;6.43;;;19.30;99.90;;;;;;5013479;28;20199;-58
2023/07/03 04:46:56;;;;;;;5.80;5.30;;;19.30;99.90;;;;;;5031270;28;20240;-58
2023/07/03 04:49:26;;;;;;;6.13;5.07;;;19.20;99.90;;;;;;5033346;28;20293;-58
2023/07/03 04:51:53;;;;;;;10.47;6.50;;;19.20;99.90;;;;;;5033231;28;20234;-58
2023/07/03 04:54:20;;;;;;;5.73;5.13;;;19.20;99.90;;;;;;5032245;28;20340;-58
2023/07/03 04:56:48;;;;;;;5.50;4.53;;;19.20;99.90;;;;;;5052827;23;20281;-63
2023/07/03 04:59:16;;;;;;;7.80;5.70;;;19.30;99.90;;;;;;5024800;28;20293;-62
2023/07/03 05:01:43;;;;;;;7.27;5.30;;;19.30;99.90;;;;;;5028144;28;20233;-62
2023/07/03 05:04:11;;;;;;;7.17;6.43;;;19.40;99.90;;;;;;5038547;28;20282;-62
2023/07/03 05:06:39;;;;;;;6.37;5.60;;;19.40;99.90;;;;;;5051794;28;20344;-61
2023/07/03 05:09:08;;;;;;;7.97;5.23;;;19.50;99.90;;;;;;5039024;28;20248;-62
2023/07/03 05:11:35;;;;;;;8.17;5.70;;;19.50;99.90;;;;;;5028624;28;20198;-62
2023/07/03 05:14:02;;;;;;;6.20;5.60;;;19.60;99.90;;;;;;5030646;28;20257;-62
2023/07/03 05:16:29;;;;;;;6.87;5.50;;;19.60;99.90;;;;;;5031390;28;20222;-62
2023/07/03 05:18:56;;;;;;;7.80;5.27;;;19.60;99.90;;;;;;5033981;28;20241;-61
2023/07/03 05:21:25;;;;;;;8.63;6.53;;;19.60;99.90;;;;;;5031313;28;20199;-62
2023/07/03 05:23:52;;;;;;;9.90;6.13;;;19.60;99.90;;;;;;5032030;28;20260;-61
2023/07/03 05:26:19;;;;;;;10.17;6.13;;;19.60;99.90;;;;;;5032009;28;20272;-62
2023/07/03 05:28:45;;;;;;;12.97;6.67;;;19.50;99.90;;;;;;5031930;28;20198;-61
2023/07/03 05:31:12;;;;;;;8.53;5.37;;;19.60;99.90;;;;;;5030444;28;20225;-62
2023/07/03 05:33:39;;;;;;;11.27;6.53;;;19.60;99.90;;;;;;5030954;28;20202;-62
2023/07/03 05:36:07;;;;;;;8.50;5.93;;;19.60;99.90;;;;;;5031345;28;20234;-61
2023/07/03 05:38:35;;;;;;;6.27;5.67;;;19.60;99.90;;;;;;5046746;28;20209;-61
2023/07/03 05:41:02;;;;;;;8.93;5.80;;;19.70;99.90;;;;;;5051821;28;20206;-62
2023/07/03 05:43:29;;;;;;;7.90;6.30;;;19.80;99.90;;;;;;5051167;28;20209;-62
2023/07/03 05:45:56;;;;;;;9.27;6.83;;;19.90;99.90;;;;;;5027350;28;20222;-61
2023/07/03 05:48:25;;;;;;;10.00;5.60;;;19.90;99.90;;;;;;5027038;28;20285;-62
2023/07/03 05:50:52;;;;;;;6.57;5.93;;;20.00;99.90;;;;;;5022735;28;20198;-62
2023/07/03 05:53:20;;;;;;;8.97;6.37;;;20.00;99.90;;;;;;5029901;28;20264;-62
2023/07/03 05:55:55;;;;;;;5.97;5.37;;;20.00;99.90;;;;;;5029043;28;20360;-62
2023/07/03 05:58:23;;;;;;;8.57;5.80;;;20.00;99.90;;;;;;5030030;28;20660;-62
2023/07/03 06:00:50;;;;;;;8.40;6.67;;;20.10;99.90;;;;;;5029826;28;20245;-62
2023/07/03 06:03:18;;;;;;;6.10;5.37;;;20.10;99.90;;;;;;5029319;28;20245;-62
2023/07/03 06:05:46;;;;;;;8.37;6.37;;;20.20;99.90;;;;;;5030312;28;20277;-62
2023/07/03 06:08:13;;;;;;;11.37;6.00;;;20.20;99.90;;;;;;5030061;28;20199;-61
2023/07/03 06:10:41;;;;;;;7.10;5.33;;;20.30;99.90;;;;;;5026847;28;20208;-62
2023/07/03 06:13:10;;;;;;;5.33;4.83;;;20.50;99.90;;;;;;5020257;28;20207;-61
2023/07/03 06:15:37;;;;;;;7.83;5.37;;;20.60;99.90;;;;;;5028531;28;20767;-61
2023/07/03 06:18:04;;;;;;;8.50;6.23;;;20.70;99.90;;;;;;5030673;28;20255;-62
2023/07/03 06:20:31;;;;;;;9.03;6.13;;;20.80;99.90;;;;;;5030233;28;20272;-61
2023/07/03 06:22:58;;;;;;;9.90;6.47;;;20.90;99.90;;;;;;5030189;28;20203;-61
2023/07/03 06:25:25;;;;;;;10.30;5.60;;;21.00;99.90;;;;;;5031529;28;20271;-60
2023/07/03 06:27:52;;;;;;;8.47;6.60;;;21.00;99.90;;;;;;5028172;28;20568;-61
2023/07/03 06:30:21;;;;;;;7.93;5.87;;;21.00;99.90;;;;;;5019136;28;20206;-60
2023/07/03 06:32:48;;;;;;;11.40;6.13;;;21.00;99.90;;;;;;5030093;28;20198;-61
2023/07/03 06:35:15;;;;;;;7.47;6.03;;;21.00;99.90;;;;;;5024671;28;20276;-61
2023/07/03 06:37:42;;;;;;;7.40;6.20;;;21.10;99.90;;;;;;5027836;28;20267;-62
2023/07/03 06:40:12;;;;;;;7.10;6.17;;;21.30;99.90;;;;;;5029868;28;20256;-61
2023/07/03 06:42:39;;;;;;;10.73;6.07;;;21.40;99.90;;;;;;5029697;28;20264;-62
2023/07/03 06:45:07;;;;;;;10.87;6.40;;;21.50;99.90;;;;;;5027566;28;20746;-62
2023/07/03 06:47:39;;;;;;;9.47;6.10;;;21.60;99.90;;;;;;5028370;28;20247;-62
2023/07/03 06:50:07;;;;;;;9.17;6.87;;;21.70;99.90;;;;;;5029614;28;20202;-61
2023/07/03 06:52:36;;;;;;;8.93;6.43;;;21.80;99.90;;;;;;5028529;28;20545;-61
2023/07/03 06:55:03;;;;;;;11.73;6.87;;;21.90;99.90;;;;;;5030048;28;20225;-62
2023/07/03 06:57:33;;;;;;;9.27;6.03;;;22.30;99.90;;;;;;5030368;28;20210;-61
2023/07/03 07:00:00;;;;;;;12.30;6.57;;;22.50;99.90;;;;;;5030246;28;20241;-61
2023/07/03 07:02:27;;;;;;;11.03;7.10;;;22.70;99.90;;;;;;5029736;28;20260;-61
2023/07/03 07:04:56;;;;;;;11.00;6.03;;;22.50;99.90;;;;;;5028343;28;20576;-62
2023/07/03 07:07:23;;;;;;;12.00;6.93;;;22.60;99.90;;;;;;5029935;28;20202;-62
2023/07/03 07:09:50;;;;;;;7.17;6.20;;;22.70;99.90;;;;;;5030446;28;20206;-62
2023/07/03 07:12:17;;;;;;;13.23;7.00;;;22.80;99.90;;;;;;5029814;28;20213;-62
2023/07/03 07:14:44;;;;;;;8.70;6.87;;;22.80;99.90;;;;;;5020869;28;20309;-62
2023/07/03 07:17:11;;;;;;;10.83;7.23;;;22.80;99.90;;;;;;5028710;28;20268;-62
2023/07/03 07:19:39;;;;;;;11.17;5.97;;;22.90;99.90;;;;;;5027516;28;20202;-62
2023/07/03 07:22:07;;;;;;;12.90;7.30;;;22.80;99.90;;;;;;5029174;28;20289;-62
2023/07/03 07:24:34;;;;;;;9.07;6.73;;;22.90;99.90;;;;;;5029282;28;20225;-61
2023/07/03 07:27:02;;;;;;;11.10;6.93;;;23.70;99.90;;;;;;5017881;28;20272;-61
2023/07/03 07:29:29;;;;;;;10.10;7.07;;;24.30;99.90;;;;;;5029745;28;20201;-61
2023/07/03 07:31:57;;;;;;;9.03;6.57;;;24.80;99.90;;;;;;5019462;28;20199;-62
2023/07/03 07:34:24;;;;;;;16.73;7.50;;;25.10;99.90;;;;;;5009838;28;20666;-62
2023/07/03 07:36:51;;;;;;;9.20;6.47;;;25.20;99.90;;;;;;5009963;28;20227;-61
2023/07/03 07:39:21;;;;;;;14.63;8.27;;;25.10;99.90;;;;;;5010293;28;20211;-62
2023/07/03 07:41:51;;;;;;;10.30;6.83;;;24.80;99.90;;;;;;5010348;28;20253;-61
2023/07/03 07:44:18;;;;;;;9.33;6.57;;;24.20;99.90;;;;;;5026126;28;20202;-61
2023/07/03 07:46:45;;;;;;;8.87;6.33;;;23.90;99.90;;;;;;5029823;28;20731;-62
2023/07/03 07:49:12;;;;;;;7.97;6.47;;;23.50;99.90;;;;;;5029993;28;20253;-61
2023/07/03 07:51:39;;;;;;;11.33;6.90;;;23.30;99.90;;;;;;5026703;28;20334;-62
2023/07/03 07:54:06;;;;;;;10.70;6.43;;;22.90;99.90;;;;;;5022672;28;20207;-61
2023/07/03 07:56:35;;;;;;;9.50;7.70;;;22.80;99.90;;;;;;5032680;28;20276;-62
2023/07/03 07:59:02;;;;;;;9.37;6.93;;;22.80;99.90;;;;;;5033334;28;20202;-62
2023/07/03 08:01:29;;;;;;;15.67;7.27;;;22.60;99.90;;;;;;5031966;28;20805;-63
2023/07/03 08:03:55;;;;;;;10.40;7.23;;;22.30;99.90;;;;;;5032726;28;20202;-62
2023/07/03 08:06:23;;;;;;;9.40;6.43;;;21.90;99.90;;;;;;5033186;28;20268;-62
2023/07/03 08:08:51;;;;;;;10.80;6.80;;;21.60;99.90;;;;;;5033175;28;20241;-62
2023/07/03 08:11:18;;;;;;;13.47;7.20;;;21.50;99.90;;;;;;5030669;28;20218;-63
2023/07/03 08:13:46;;;;;;;13.17;7.10;;;21.40;99.90;;;;;;5033276;28;20285;-62
2023/07/03 08:16:18;;;;;;;9.07;6.47;;;21.30;99.90;;;;;;5034209;28;20684;-62
2023/07/03 08:18:45;;;;;;;12.80;7.17;;;21.40;99.90;;;;;;5019513;28;20216;-61
2023/07/03 08:21:13;;;;;;;14.30;8.03;;;21.30;99.90;;;;;;5044187;28;20289;-62
2023/07/03 08:23:40;;;;;;;13.43;7.87;;;21.10;99.90;;;;;;5032859;28;20260;-62
2023/07/03 08:26:07;;;;;;;13.87;7.20;;;21.00;99.90;;;;;;5048649;28;20225;-61
2023/07/03 08:28:34;;;;;;;12.70;8.43;;;20.90;99.90;;;;;;5043344;28;20198;-62
2023/07/03 08:31:03;;;;;;;10.23;5.93;;;20.80;99.90;;;;;;5033191;28;20554;-62
2023/07/03 08:33:30;;;;;;;10.77;7.63;;;20.90;99.90;;;;;;5031944;28;20307;-62
2023/07/03 08:35:57;;;;;;;11.63;6.77;;;21.00;99.90;;;;;;5028532;28;20311;-62
2023/07/03 08:38:24;;;;;;;8.27;6.70;;;21.00;99.90;;;;;;5026466;28;20202;-62
2023/07/03 08:40:57;;;;;;;10.70;6.70;;;21.10;99.90;;;;;;5032655;28;20618;-63
2023/07/03 08:43:24;;;;;;;12.30;7.47;;;21.30;99.90;;;;;;5013160;28;20199;-62
2023/07/03 08:45:52;;;;;;;9.83;7.33;;;21.30;99.90;;;;;;5012503;28;20721;-62
2023/07/03 08:48:23;;;;;;;9.03;6.97;;;21.40;99.90;;;;;;5012970;28;20207;-63
2023/07/03 08:50:55;;;;;;;11.30;7.87;;;21.40;99.90;;;;;;5017349;28;20284;-63
2023/07/03 08:53:24;;;;;;;11.57;7.70;;;21.40;99.90;;;;;;5021832;28;20325;-61
2023/07/03 08:55:57;;;;;;;13.63;7.97;;;21.50;99.90;;;;;;5043080;28;20226;-61
2023/07/03 08:58:24;;;;;;;8.50;6.90;;;21.60;99.90;;;;;;5052527;28;20252;-61
2023/07/03 09:01:04;;;;;;;8.80;6.70;;;21.70;99.90;;;;;;5025392;28;20212;-62
2023/07/03 09:03:40;;;;;;;10.57;7.67;;;21.80;99.90;;;;;;5013222;28;20657;-63
2023/07/03 09:06:16;;;;;;;15.37;7.43;;;21.70;99.90;;;;;;5028616;28;20221;-61
2023/07/03 09:08:54;;;;;;;13.10;7.63;;;21.80;99.90;;;;;;5029373;28;20248;-63
2023/07/03 09:11:23;;;;;;;12.37;7.60;;;22.00;99.90;;;;;;5027626;28;20202;-62
2023/07/03 09:13:53;;;;;;;9.10;7.67;;;22.20;99.90;;;;;;5029082;28;20232;-63
2023/07/03 09:16:22;;;;;;;11.37;7.00;;;22.40;99.90;;;;;;5033999;28;20226;-62
2023/07/03 09:18:54;;;;;;;12.20;7.87;;;22.60;99.90;;;;;;5032142;28;20229;-62
2023/07/03 09:21:22;;;;;;;9.13;6.37;;;22.80;99.90;;;;;;5026961;28;20210;-61
2023/07/03 09:23:59;;;;;;;14.97;7.57;;;22.70;99.90;;;;;;5025650;28;20861;-62
2023/07/03 09:26:34;;;;;;;8.67;7.60;;;23.00;99.90;;;;;;5030145;28;20222;-61
2023/07/03 09:29:02;;;;;;;10.23;6.33;;;23.20;99.90;;;;;;5031665;28;20264;-62
2023/07/03 09:31:29;;;;;;;10.63;7.33;;;23.40;99.90;;;;;;5030339;28;20202;-62
2023/07/03 09:33:57;;;;;;;11.07;7.33;;;23.40;99.90;;;;;;5029746;28;20770;-62
2023/07/03 09:36:30;;;;;;;11.73;6.73;;;23.50;99.90;;;;;;5030958;28;20713;-62
2023/07/03 09:38:57;;;;;;;9.33;6.57;;;23.60;99.90;;;;;;5029144;28;20226;-62
2023/07/03 09:41:26;;;;;;;11.85;7.05;;;23.70;99.90;;;;;;5025417;28;20450;-61
2023/07/03 09:43:53;;;;;;;12.00;7.67;;;23.70;99.90;;;;;;5029188;28;20268;-60
2023/07/03 09:46:21;;;;;;;12.90;7.67;;;23.60;99.90;;;;;;5031232;28;20789;-61
2023/07/03 09:48:48;;;;;;;15.93;8.93;;;23.60;99.90;;;;;;5043413;28;20285;-62
2023/07/03 09:51:25;;;;;;;11.07;6.67;;;23.60;99.90;;;;;;5026639;28;20265;-60
2023/07/03 09:53:52;;;;;;;12.67;7.27;;;23.50;99.90;;;;;;5038712;28;20227;-60
2023/07/03 09:56:22;;;;;;;9.33;7.17;;;23.10;99.90;;;;;;5046552;28;20229;-60
2023/07/03 09:58:51;;;;;;;10.00;7.00;;;23.00;99.90;;;;;;5035629;28;20222;-66
2023/07/03 10:01:21;;;;;;;10.43;7.17;;;23.10;99.90;;;;;;5030833;28;20766;-68
2023/07/03 10:03:48;;;;;;;13.23;7.30;;;23.10;99.90;;;;;;5030661;28;20206;-67
2023/07/03 10:06:18;;;;;;;9.03;7.60;;;23.20;99.90;;;;;;5030668;28;20283;-67
2023/07/03 10:08:51;;;;;;;13.77;7.77;;;23.10;99.90;;;;;;5030673;28;20206;-67
2023/07/03 10:11:22;;;;;;;11.47;7.77;;;23.30;99.90;;;;;;5008132;28;20378;-66
2023/07/03 10:13:52;;;;;;;9.00;6.53;;;23.40;99.90;;;;;;5022801;28;20264;-64
2023/07/03 10:16:22;;;;;;;13.47;7.63;;;23.60;99.90;;;;;;5030089;28;20309;-59
2023/07/03 10:18:55;;;;;;;18.27;8.70;;;23.70;99.90;;;;;;5030879;28;20202;-67
2023/07/03 10:21:23;;;;;;;10.43;6.97;;;23.70;99.90;;;;;;5030462;28;20297;-68
2023/07/03 10:23:53;;;;;;;12.77;7.43;;;23.50;99.90;;;;;;5030370;28;20210;-70
2023/07/03 10:26:24;;;;;;;10.77;7.03;;;23.40;99.90;;;;;;5028749;28;20309;-66
2023/07/03 10:28:57;;;;;;;9.70;6.97;;;23.40;99.90;;;;;;5023430;28;20277;-69
2023/07/03 10:31:32;;;;;;;16.93;8.10;;;23.30;99.90;;;;;;5027558;28;20285;-70
2023/07/03 10:34:04;;;;;;;14.07;8.07;;;23.40;99.90;;;;;;5026605;28;20281;-68
2023/07/03 10:36:34;;;;;;;11.17;8.33;;;23.70;99.90;;;;;;5023199;28;20598;-66
2023/07/03 10:39:08;;;;;;;14.67;8.17;;;23.80;99.90;;;;;;5023911;28;20199;-58
2023/07/03 10:41:43;;;;;;;11.97;8.00;;;23.70;99.90;;;;;;5029219;28;20202;-58
2023/07/03 10:44:17;;;;;;;12.10;7.70;;;24.40;99.90;;;;;;5021578;28;20208;-58
2023/07/03 10:46:51;;;;;;;10.30;7.67;;;25.20;99.90;;;;;;5031342;28;20277;-60
2023/07/03 10:49:24;;;;;;;14.30;7.97;;;25.50;99.90;;;;;;5029678;28;20206;-58
2023/07/03 10:52:00;;;;;;;9.70;7.30;;;25.60;99.90;;;;;;5032784;28;20206;-59
2023/07/03 10:54:34;;;;;;;11.10;6.80;;;25.10;99.90;;;;;;5027407;28;20302;-59
2023/07/03 10:57:05;;;;;;;12.37;8.30;;;25.10;99.90;;;;;;5029048;28;20351;-59
2023/07/03 10:59:35;;;;;;;12.50;7.97;;;25.10;99.90;;;;;;5028362;28;20206;-68
2023/07/03 11:02:15;;;;;;;9.40;7.67;;;25.60;99.90;;;;;;5083743;23;22226;-65
2023/07/03 11:04:51;;;;;;;9.70;6.73;;;25.80;99.90;;;;;;5045865;28;20213;-62
2023/07/03 11:07:27;;;;;;;10.00;6.80;;;26.30;99.90;;;;;;5043570;28;20204;-62
2023/07/03 11:10:01;;;;;;;15.20;7.93;;;26.80;99.90;;;;;;5049642;28;20695;-60
2023/07/03 11:12:38;;;;;;;11.27;7.97;;;26.80;99.90;;;;;;5049676;28;20291;-62
2023/07/03 11:15:18;;;;;;;8.37;7.20;;;26.90;99.90;;;;;;5045559;28;20209;-63
2023/07/03 11:17:55;;;;;;;10.93;7.40;;;26.50;99.90;;;;;;5048589;28;20222;-63
2023/07/03 11:20:28;;;;;;;12.50;8.67;;;26.50;99.90;;;;;;5049097;28;20205;-63
2023/07/03 11:23:01;;;;;;;10.60;7.30;;;26.60;99.90;;;;;;5050044;28;20222;-63
2023/07/03 11:25:35;;;;;;;9.67;8.33;;;26.70;99.90;;;;;;5048363;28;20202;-64
2023/07/03 11:28:08;;;;;;;11.57;8.03;;;26.50;99.90;;;;;;5048542;28;20259;-65
2023/07/03 11:30:36;;;;;;;12.73;8.50;;;26.70;99.90;;;;;;5053031;28;20209;-63
2023/07/03 11:33:05;;;;;;;13.98;8.15;;;26.90;99.90;;;;;;5049861;28;20228;-63
2023/07/03 11:35:33;;;;;;;10.93;8.60;;;26.70;99.90;;;;;;5052162;28;20674;-66
2023/07/03 11:38:02;;;;;;;10.55;7.00;;;26.60;99.90;;;;;;5053670;28;20229;-64
2023/07/03 11:40:35;;;;;;;10.88;8.65;;;26.70;99.90;;;;;;5052185;28;20292;-65
2023/07/03 11:43:24;;;;;;;10.73;8.48;;;26.40;99.90;;;;;;5052149;28;20810;-61
2023/07/03 11:46:06;;;;;;;14.43;8.23;;;26.30;99.90;;;;;;5053089;28;20201;-62
2023/07/03 11:48:42;;;;;;;12.40;8.63;;;26.50;99.90;;;;;;5051335;28;20198;-63
2023/07/03 11:51:12;;;;;;;15.13;8.40;;;26.30;99.90;;;;;;5045061;28;20193;-62
2023/07/03 11:53:43;;;;;;;10.93;7.57;;;26.10;99.90;;;;;;5052794;28;20313;-59
2023/07/03 11:56:28;;;;;;;13.00;7.70;;;25.90;99.90;;;;;;5053609;28;20280;-60
2023/07/03 11:59:03;;;;;;;11.30;7.90;;;26.00;99.90;;;;;;5050480;28;20266;-60
2023/07/03 12:01:31;;;;;;;15.73;8.77;;;25.80;99.90;;;;;;5048636;28;20205;-60
2023/07/03 12:04:00;;;;;;;10.18;7.25;;;25.90;99.90;;;;;;5051361;28;20241;-61
2023/07/03 12:06:48;;;;;;;8.47;7.00;;;26.10;99.90;;;;;;5051700;28;20194;-61
2023/07/03 12:09:30;;;;;;;9.73;7.68;;;26.30;99.90;;;;;;5053043;28;20201;-62
2023/07/03 12:12:16;;;;;;;8.70;6.60;;;26.40;99.90;;;;;;5051751;28;20229;-63
2023/07/03 12:14:54;;;;;;;9.00;7.57;;;26.40;99.90;;;;;;5042933;28;20671;-60
2023/07/03 12:17:24;;;;;;;8.77;7.23;;;26.30;99.90;;;;;;5053163;28;20229;-62
2023/07/03 12:19:55;;;;;;;12.70;7.45;;;25.60;99.90;;;;;;5052927;28;20555;-61
2023/07/03 12:22:26;;;;;;;10.07;7.43;;;25.50;99.90;;;;;;5052845;28;20647;-62
2023/07/03 12:25:01;;;;;;;13.10;8.57;;;25.20;99.90;;;;;;5042482;28;20281;-62
2023/07/03 12:27:30;;;;;;;12.63;8.27;;;25.00;99.90;;;;;;5051632;28;20225;-60
2023/07/03 12:29:58;;;;;;;13.33;8.50;;;25.10;99.90;;;;;;5052733;28;20282;-63
2023/07/03 12:32:30;;;;;;;10.27;7.40;;;25.20;99.90;;;;;;5050081;28;20225;-55
2023/07/03 12:35:12;;;;;;;10.37;6.63;;;25.50;99.90;;;;;;5051223;28;20256;-59
2023/07/03 12:37:45;;;;;;;8.43;6.75;;;25.80;99.90;;;;;;5052610;28;20291;-60
2023/07/03 12:40:13;;;;;;;10.33;7.23;;;25.80;99.90;;;;;;5050013;28;20198;-56
2023/07/03 12:42:41;;;;;;;10.73;7.10;;;25.50;99.90;;;;;;5052288;28;20268;-63
2023/07/03 12:45:14;;;;;;;10.53;7.23;;;25.10;99.90;;;;;;5052060;28;20271;-60
2023/07/03 12:47:42;;;;;;;12.27;7.63;;;24.40;99.90;;;;;;5051496;28;20206;-61
2023/07/03 12:50:15;;;;;;;12.23;7.00;;;24.30;99.90;;;;;;5048151;28;20332;-60
2023/07/03 12:52:42;;;;;;;11.57;6.70;;;24.50;99.90;;;;;;5051851;28;20283;-61